createdAt,value
2018-08-16T00:07:18.066Z,3.30
2018-08-16T00:18:16.932Z,3.30
2018-08-16T00:29:15.080Z,3.29
2018-08-16T00:40:12.353Z,3.29
2018-08-16T00:51:09.489Z,3.29
2018-08-16T01:02:10.919Z,3.29
2018-08-16T01:13:10.646Z,3.29
2018-08-16T01:24:17.585Z,3.26
2018-08-16T01:35:19.514Z,3.28
2018-08-16T01:46:17.421Z,3.28
2018-08-16T01:57:12.602Z,3.28
2018-08-16T02:08:14.690Z,3.27
2018-08-16T02:19:11.693Z,3.27
2018-08-16T02:30:10.094Z,3.27
2018-08-16T02:41:08.621Z,3.26
2018-08-16T02:52:06.103Z,3.26
2018-08-16T03:03:04.275Z,3.26
2018-08-16T03:14:00.015Z,3.26
2018-08-16T03:24:58.969Z,3.26
2018-08-16T03:35:48.411Z,3.25
2018-08-16T03:46:48.272Z,3.25
2018-08-16T03:57:45.453Z,3.25
2018-08-16T04:08:41.975Z,3.25
2018-08-16T04:19:37.416Z,3.25
2018-08-16T04:30:39.638Z,3.25
2018-08-16T04:41:41.924Z,3.25
2018-08-16T04:52:41.154Z,3.25
2018-08-16T05:03:41.737Z,3.25
2018-08-16T05:14:40.338Z,3.25
2018-08-16T05:25:35.552Z,3.25
2018-08-16T05:36:32.319Z,3.25
2018-08-16T05:47:21.944Z,3.26
2018-08-16T05:58:21.657Z,3.26
2018-08-16T06:09:17.054Z,3.26
2018-08-16T06:20:05.931Z,3.27
2018-08-16T06:31:15.071Z,3.26
2018-08-16T06:42:13.359Z,3.28
2018-08-16T06:53:08.835Z,3.29
2018-08-16T07:03:55.342Z,3.29
2018-08-16T07:14:55.750Z,3.30
2018-08-16T07:25:54.494Z,3.31
2018-08-16T07:36:57.267Z,3.32
2018-08-16T07:47:44.558Z,3.33
2018-08-16T07:58:31.403Z,3.33
2018-08-16T08:09:27.424Z,3.34
2018-08-16T08:20:29.743Z,3.35
2018-08-16T08:31:09.424Z,3.37
2018-08-16T08:41:51.573Z,3.39
2018-08-16T08:52:45.766Z,3.39
2018-08-16T09:03:35.057Z,3.39
2018-08-16T09:14:29.938Z,3.40
2018-08-16T09:25:29.319Z,3.40
2018-08-16T09:36:23.417Z,3.39
2018-08-16T09:47:16.534Z,3.39
2018-08-16T09:58:06.664Z,3.42
2018-08-16T10:09:08.233Z,3.44
2018-08-16T10:20:01.622Z,3.40
2018-08-16T10:31:00.281Z,3.39
2018-08-16T10:42:03.356Z,3.40
2018-08-16T10:53:02.751Z,3.43
2018-08-16T11:04:02.627Z,3.41
2018-08-16T11:15:02.773Z,3.40
2018-08-16T11:26:03.298Z,3.41
2018-08-16T11:37:03.927Z,3.40
2018-08-16T11:48:06.126Z,3.40
2018-08-16T11:59:10.120Z,3.43
2018-08-16T12:10:05.002Z,3.42
2018-08-16T12:21:01.859Z,3.41
2018-08-16T12:32:01.290Z,3.40
2018-08-16T12:43:03.837Z,3.42
2018-08-16T12:53:59.565Z,3.41
2018-08-16T13:04:55.445Z,3.40
2018-08-16T13:15:56.626Z,3.40
2018-08-16T13:27:02.725Z,3.40
2018-08-16T13:38:00.065Z,3.40
2018-08-16T13:49:05.938Z,3.40
2018-08-16T13:59:57.787Z,3.44
2018-08-16T14:10:40.609Z,3.43
2018-08-16T14:21:25.684Z,3.42
2018-08-16T14:32:12.700Z,3.42
2018-08-16T14:43:01.615Z,3.42
2018-08-16T14:53:37.461Z,3.42
2018-08-16T15:04:20.324Z,3.41
2018-08-16T15:15:11.922Z,3.41
2018-08-16T15:25:53.366Z,3.40
2018-08-16T15:36:42.057Z,3.39
2018-08-16T15:47:16.799Z,3.42
2018-08-16T15:58:12.845Z,3.41
2018-08-16T16:09:01.542Z,3.40
2018-08-16T16:19:57.041Z,3.42
2018-08-16T16:30:56.908Z,3.42
2018-08-16T16:41:53.473Z,3.42
2018-08-16T16:52:51.555Z,3.42
2018-08-16T17:03:46.735Z,3.41
2018-08-16T17:14:44.013Z,3.41
2018-08-16T17:25:46.790Z,3.41
2018-08-16T17:36:44.782Z,3.40
2018-08-16T17:47:39.059Z,3.40
2018-08-16T17:58:42.490Z,3.39
2018-08-16T18:09:41.241Z,3.39
2018-08-16T18:20:38.895Z,3.39
2018-08-16T18:31:36.397Z,3.39
2018-08-16T18:42:33.383Z,3.38
2018-08-16T18:53:19.588Z,3.37
2018-08-16T19:04:07.203Z,3.37
2018-08-16T19:14:58.654Z,3.37
2018-08-16T19:25:55.656Z,3.36
2018-08-16T19:36:56.756Z,3.36
2018-08-16T19:48:00.214Z,3.34
2018-08-16T19:58:59.070Z,3.35
2018-08-16T20:09:56.645Z,3.35
2018-08-16T20:20:50.574Z,3.34
2018-08-16T20:31:47.610Z,3.34
2018-08-16T20:42:49.039Z,3.34
2018-08-16T20:53:44.609Z,3.34
2018-08-16T21:04:41.356Z,3.34
2018-08-16T21:15:42.865Z,3.34
2018-08-16T21:26:39.046Z,3.33
2018-08-16T21:37:40.390Z,3.33
2018-08-16T21:48:37.297Z,3.33
2018-08-16T21:59:34.434Z,3.33
2018-08-16T22:10:35.882Z,3.33
2018-08-16T22:21:35.250Z,3.33
2018-08-16T22:32:33.661Z,3.32
2018-08-16T22:43:33.619Z,3.32
2018-08-16T22:54:31.068Z,3.32
2018-08-16T23:05:29.733Z,3.32
2018-08-16T23:16:33.234Z,3.31
2018-08-16T23:27:36.627Z,3.31
2018-08-16T23:38:38.803Z,3.31
2018-08-16T23:49:41.713Z,3.31
